Time;durP1;ratioP1;P1;durP2;ratioP2;P2;SDS_P1;SDS_P2;PMS_P1;PMS_P2;Temp;Humidity;BMP_temperature;BMP_pressure;BME280_temperature;BME280_humidity;BME280_pressure;Samples;Min_cycle;Max_cycle;Signal;HPM_P1;HPM_P2
2021/07/01 00:00:06;;;;;;;;;;;;;;;23.28;63.92;98730.03;3477313;27;2047635;-73
2021/07/01 00:02:03;;;;;;;;;;;;;;;23.28;64.02;98732.75;3508888;27;19994;-73
2021/07/01 00:03:55;;;;;;;;;;;;;;;23.27;64.00;98722.97;3493122;27;2059990;-76
2021/07/01 00:05:47;;;;;;;;;;;;;;;23.28;64.09;98719.16;3464263;27;2082219;-76
2021/07/01 00:07:42;;;;;;;;;;;;;;;23.28;64.19;98724.59;3492760;27;2076621;-74
2021/07/01 00:09:37;;;;;;;;;;;;;;;23.27;64.20;98717.53;3522970;27;19959;-76
2021/07/01 00:11:29;;;;;;;;;;;;;;;23.27;64.22;98720.25;3461756;27;2918727;-75
2021/07/01 00:13:21;;;;;;;;;;;;;;;23.27;64.18;98721.06;3492353;27;2064867;-74
2021/07/01 00:15:14;;;;;;;;;;;;;;;23.27;64.22;98717.53;3494084;27;2047647;-76
2021/07/01 00:17:06;;;;;;;;;;;;;;;23.27;64.08;98720.25;3492623;27;2091425;-74
2021/07/01 00:19:01;;;;;;;;;;;;;;;23.27;64.19;98717.53;3509380;27;20331;-74
2021/07/01 00:20:54;;;;;;;;;;;;;;;23.27;64.28;98721.06;3493377;27;2058889;-76
2021/07/01 00:22:46;;;;;;;;;;;;;;;23.27;64.18;98725.69;3480939;27;2054461;-76
2021/07/01 00:24:38;;;;;;;;;;;;;;;23.27;64.19;98725.69;3493448;27;2044623;-74
2021/07/01 00:26:32;;;;;;;;;;;;;;;23.27;64.31;98726.50;3523034;27;19955;-74
2021/07/01 00:28:24;;;;;;;;;;;;;;;23.25;64.29;98717.03;3495159;27;2066221;-75
2021/07/01 00:30:17;;;;;;;;;;;;;;;23.26;64.33;98710.50;3492375;27;2077793;-75
2021/07/01 00:32:15;;;;;;;;;;;;;;;23.26;64.39;98711.31;3495243;28;19960;-76
2021/07/01 00:34:08;;;;;;;;;;;;;;;23.26;64.29;98713.22;3492890;27;2047146;-74
2021/07/01 00:36:02;;;;;;;;;;;;;;;23.26;64.49;98708.59;3522483;27;20390;-76
2021/07/01 00:37:55;;;;;;;;;;;;;;;23.27;64.35;98706.66;3493275;27;2061275;-75
2021/07/01 00:39:46;;;;;;;;;;;;;;;23.27;64.30;98717.53;3489849;27;2144160;-74
2021/07/01 00:41:39;;;;;;;;;;;;;;;23.27;64.22;98720.25;3492230;27;2073119;-75
2021/07/01 00:43:32;;;;;;;;;;;;;;;23.27;64.30;98720.25;3493870;27;2050199;-74
2021/07/01 00:45:26;;;;;;;;;;;;;;;23.26;64.53;98718.66;3524081;27;19956;-75
2021/07/01 00:47:20;;;;;;;;;;;;;;;23.26;64.42;98721.38;3493773;27;2060307;-75
2021/07/01 00:49:12;;;;;;;;;;;;;;;23.25;64.61;98709.69;3497646;27;2224659;-75
2021/07/01 00:51:06;;;;;;;;;;;;;;;23.24;64.54;98716.25;3415872;27;4697620;-74
2021/07/01 00:52:59;;;;;;;;;;;;;;;23.24;64.40;98716.25;3493975;27;2137422;-75
2021/07/01 00:54:57;;;;;;;;;;;;;;;23.24;64.48;98716.25;3485116;27;2063399;-75
2021/07/01 00:56:49;;;;;;;;;;;;;;;23.23;64.55;98720.06;3396989;27;4726817;-75
2021/07/01 00:58:43;;;;;;;;;;;;;;;23.23;64.51;98719.25;3565816;27;19946;-76
2021/07/01 01:01:01;;;;;;;;;;;;;;;23.23;64.71;98719.25;3479464;27;2054302;-73
2021/07/01 01:02:53;;;;;;;;;;;;;;;23.23;64.54;98720.06;3481955;27;2075631;-76
2021/07/01 01:05:17;;;;;;;;;;;;;;;23.23;64.78;98725.50;3492990;27;2045080;-73
2021/07/01 01:07:11;;;;;;;;;;;;;;;23.22;64.74;98721.16;3495549;27;19964;-73
2021/07/01 01:09:08;;;;;;;;;;;;;;;23.22;64.90;98718.44;3523110;27;19955;-74
2021/07/01 01:11:30;;;;;;;;;;;;;;;23.23;64.90;98719.25;3492493;27;2068614;-74
2021/07/01 01:13:34;;;;;;;;;;;;;;;23.22;64.81;98717.66;3495186;28;19956;-72
2021/07/01 01:15:44;;;;;;;;;;;;;;;23.23;64.72;98716.53;3490673;27;2049985;-74
2021/07/01 01:17:37;;;;;;;;;;;;;;;23.22;64.89;98718.44;3488967;27;2175217;-74
2021/07/01 01:19:29;;;;;;;;;;;;;;;23.23;64.84;98713.81;3493766;27;2049998;-74
2021/07/01 01:21:27;;;;;;;;;;;;;;;23.23;64.99;98716.53;3494509;28;20399;-75
2021/07/01 01:23:49;;;;;;;;;;;;;;;23.22;64.80;98704.84;3476795;27;2159504;-74
2021/07/01 01:25:46;;;;;;;;;;;;;;;23.23;64.91;98711.91;3494978;28;19971;-74
2021/07/01 01:27:41;;;;;;;;;;;;;;;23.23;64.76;98705.66;3522288;27;19970;-75
2021/07/01 01:29:34;;;;;;;;;;;;;;;23.23;64.81;98709.19;3493588;27;2052280;-74
2021/07/01 01:31:26;;;;;;;;;;;;;;;23.23;64.87;98708.38;3490969;27;2127648;-75
2021/07/01 01:33:21;;;;;;;;;;;;;;;23.23;64.92;98708.38;3522607;27;19951;-76
2021/07/01 01:35:14;;;;;;;;;;;;;;;23.24;64.75;98715.44;3492785;27;2054041;-74
2021/07/01 01:37:09;;;;;;;;;;;;;;;23.24;64.79;98710.00;3522500;27;19955;-74
2021/07/01 01:39:03;;;;;;;;;;;;;;;23.24;65.04;98710.00;3493227;27;2059214;-75
2021/07/01 01:41:04;;;;;;;;;;;;;;;23.25;64.89;98714.31;3464111;27;2083663;-74
2021/07/01 01:42:56;;;;;;;;;;;;;;;23.25;64.73;98714.31;3482022;27;2077506;-74
2021/07/01 01:44:49;;;;;;;;;;;;;;;23.25;64.97;98706.16;3493327;27;2050007;-73
2021/07/01 01:46:41;;;;;;;;;;;;;;;23.24;65.00;98704.56;3492293;27;2076645;-75
2021/07/01 01:48:34;;;;;;;;;;;;;;;23.25;64.81;98703.44;3493554;27;2057189;-74
2021/07/01 01:50:29;;;;;;;;;;;;;;;23.24;65.03;98704.56;3508954;27;19988;-77
2021/07/01 01:52:21;;;;;;;;;;;;;;;23.24;64.99;98699.91;3487921;27;2052514;-73
2021/07/01 01:54:14;;;;;;;;;;;;;;;23.24;64.81;98699.91;3492183;27;2069091;-73
2021/07/01 01:56:08;;;;;;;;;;;;;;;23.24;65.00;98704.56;3492598;27;2067008;-73
2021/07/01 01:58:04;;;;;;;;;;;;;;;23.24;64.97;98699.13;3522850;27;20383;-75
2021/07/01 02:00:19;;;;;;;;;;;;;;;23.24;64.95;98699.13;3492355;27;2078087;-73
2021/07/01 02:02:25;;;;;;;;;;;;;;;23.23;64.84;98701.03;3487943;27;2038002;-74
2021/07/01 02:04:39;;;;;;;;;;;;;;;23.23;65.00;98698.31;3522871;27;19974;-74
2021/07/01 02:06:35;;;;;;;;;;;;;;;23.23;65.04;98703.75;3513121;27;19963;-75
2021/07/01 02:08:32;;;;;;;;;;;;;;;23.24;65.08;98704.56;3487987;27;2065091;-73
2021/07/01 02:10:29;;;;;;;;;;;;;;;23.23;64.98;98709.19;3493161;27;2058120;-73
2021/07/01 02:12:21;;;;;;;;;;;;;;;23.25;65.01;98712.41;3488725;27;2040264;-74
2021/07/01 02:14:17;;;;;;;;;;;;;;;23.26;65.06;98710.50;3522543;27;19964;-73
2021/07/01 02:16:23;;;;;;;;;;;;;;;23.26;64.88;98705.06;3489373;27;2120194;-73
2021/07/01 02:18:17;;;;;;;;;;;;;;;23.26;64.90;98707.78;3493576;27;2043540;-72
2021/07/01 02:20:13;;;;;;;;;;;;;;;23.26;65.02;98705.88;3580081;27;20329;-73
2021/07/01 02:22:08;;;;;;;;;;;;;;;23.27;64.95;98712.09;3462222;27;2052539;-72
2021/07/01 02:24:05;;;;;;;;;;;;;;;23.28;65.02;98711.00;3477488;27;2481507;-74
2021/07/01 02:25:59;;;;;;;;;;;;;;;23.29;64.93;98713.41;3508713;27;19955;-74
2021/07/01 02:27:54;;;;;;;;;;;;;;;23.30;65.00;98715.00;3522197;27;19955;-74
2021/07/01 02:29:47;;;;;;;;;;;;;;;23.32;65.04;98711.22;3478299;27;2078751;-74
2021/07/01 02:31:40;;;;;;;;;;;;;;;23.32;64.96;98717.44;3495211;27;2057521;-74
2021/07/01 02:33:32;;;;;;;;;;;;;;;23.33;65.12;98716.31;3483202;27;2051402;-73
2021/07/01 02:35:27;;;;;;;;;;;;;;;23.33;64.97;98713.59;3494963;28;19956;-75
2021/07/01 02:37:39;;;;;;;;;;;;;;;23.34;64.97;98725.28;3493446;27;2049771;-75
2021/07/01 02:39:39;;;;;;;;;;;;;;;23.35;65.08;98721.47;3508852;27;19963;-73
2021/07/01 02:41:31;;;;;;;;;;;;;;;23.35;64.99;98719.56;3488665;27;2157104;-74
2021/07/01 02:43:23;;;;;;;;;;;;;;;23.36;65.15;98729.31;3479809;27;2049211;-74
2021/07/01 02:45:36;;;;;;;;;;;;;;;23.37;64.90;98730.94;3522722;27;19963;-74
2021/07/01 02:47:50;;;;;;;;;;;;;;;23.37;64.85;98730.94;3522827;27;19955;-74
2021/07/01 02:49:44;;;;;;;;;;;;;;;23.36;65.01;98723.88;3565887;27;20411;-74
2021/07/01 02:51:40;;;;;;;;;;;;;;;23.38;65.08;98726.31;3490699;27;2104693;-73
2021/07/01 02:53:32;;;;;;;;;;;;;;;23.38;65.01;98727.09;3479092;27;2063520;-75
2021/07/01 02:55:27;;;;;;;;;;;;;;;23.40;65.15;98730.31;3523117;27;19963;-74
2021/07/01 02:57:22;;;;;;;;;;;;;;;23.41;65.01;98734.66;3508827;27;19983;-73
2021/07/01 02:59:25;;;;;;;;;;;;;;;23.43;65.01;98729.72;3494971;28;19952;-73
2021/07/01 03:01:39;;;;;;;;;;;;;;;23.46;64.99;98734.53;3549198;27;19930;-73
2021/07/01 03:03:53;;;;;;;;;;;;;;;23.47;65.08;98738.91;3494343;28;19960;-73
2021/07/01 03:05:50;;;;;;;;;;;;;;;23.49;65.21;98739.41;3523037;27;19947;-73
2021/07/01 03:07:45;;;;;;;;;;;;;;;23.51;64.68;98728.19;3522836;27;19955;-74
2021/07/01 03:09:39;;;;;;;;;;;;;;;23.53;64.90;98731.44;3481236;27;2074854;-72
2021/07/01 03:11:32;;;;;;;;;;;;;;;23.55;64.92;98731.94;3488174;27;2142903;-73
2021/07/01 03:13:25;;;;;;;;;;;;;;;23.56;64.89;98738.19;3508874;27;19967;-74
2021/07/01 03:15:22;;;;;;;;;;;;;;;23.57;64.99;98739.78;3494845;28;19948;-72
2021/07/01 03:17:15;;;;;;;;;;;;;;;23.58;64.93;98730.53;3493050;27;2060674;-75
2021/07/01 03:19:08;;;;;;;;;;;;;;;23.58;64.93;98725.09;3480154;27;2433443;-73
2021/07/01 03:21:20;;;;;;;;;;;;;;;23.59;64.85;98722.03;3480061;27;2170367;-74
2021/07/01 03:23:19;;;;;;;;;;;;;;;23.60;64.92;98728.31;3453123;27;2074092;-74
2021/07/01 03:25:14;;;;;;;;;;;;;;;23.61;64.67;98729.91;3492671;27;2072894;-73
2021/07/01 03:27:09;;;;;;;;;;;;;;;23.61;64.96;98735.34;3522636;27;20041;-73
2021/07/01 03:29:01;;;;;;;;;;;;;;;23.61;64.78;98735.34;3493948;27;2040643;-76
2021/07/01 03:30:53;;;;;;;;;;;;;;;23.62;64.80;98734.22;3460775;27;2160625;-76
2021/07/01 03:32:46;;;;;;;;;;;;;;;23.62;64.80;98736.94;3486110;27;2058620;-74
2021/07/01 03:34:41;;;;;;;;;;;;;;;23.62;64.92;98726.91;3493336;27;2051466;-75
2021/07/01 03:36:33;;;;;;;;;;;;;;;23.64;64.72;98734.75;3482531;27;2075702;-73
2021/07/01 03:39:05;;;;;;;;;;;;;;;23.63;65.01;98744.81;3492006;27;2089752;-75
2021/07/01 03:41:39;;;;;;;;;;;;;;;23.64;64.95;98738.25;3522525;27;19955;-75
2021/07/01 03:43:34;;;;;;;;;;;;;;;23.65;64.92;98730.94;3479769;27;2075366;-74
2021/07/01 03:45:28;;;;;;;;;;;;;;;23.65;64.98;98742.63;3492788;27;2072317;-74
2021/07/01 03:47:20;;;;;;;;;;;;;;;23.65;64.81;98737.16;3492996;27;2060147;-74
2021/07/01 03:49:15;;;;;;;;;;;;;;;23.66;64.85;98744.22;3492889;27;2059535;-74
2021/07/01 03:51:37;;;;;;;;;;;;;;;23.66;64.81;98744.22;3522050;27;19970;-74
2021/07/01 03:53:48;;;;;;;;;;;;;;;23.67;65.01;98753.16;3453091;27;3179465;-73
2021/07/01 03:55:57;;;;;;;;;;;;;;;23.69;64.97;98750.97;3453786;28;19961;-73
2021/07/01 03:57:50;;;;;;;;;;;;;;;23.69;64.91;98749.03;3492753;27;2065218;-73
2021/07/01 03:59:43;;;;;;;;;;;;;;;23.70;64.80;98755.31;3490935;27;2105155;-74
2021/07/01 04:01:57;;;;;;;;;;;;;;;23.72;64.71;98753.09;3508151;27;20038;-74
2021/07/01 04:03:49;;;;;;;;;;;;;;;23.73;64.77;98752.00;3477366;27;2072541;-74
2021/07/01 04:05:44;;;;;;;;;;;;;;;23.73;64.65;98752.00;3493181;27;2057940;-76
2021/07/01 04:07:40;;;;;;;;;;;;;;;23.74;64.79;98753.59;3499589;28;19948;-74
2021/07/01 04:09:35;;;;;;;;;;;;;;;23.76;64.89;98754.09;3489178;27;2225196;-75
2021/07/01 04:11:50;;;;;;;;;;;;;;;23.78;64.85;98759.25;3508736;27;19960;-74
2021/07/01 04:13:44;;;;;;;;;;;;;;;23.80;64.73;98754.28;3518339;27;20035;-74
2021/07/01 04:15:57;;;;;;;;;;;;;;;23.81;64.95;98754.00;3491842;27;2103654;-76
2021/07/01 04:17:49;;;;;;;;;;;;;;;23.82;65.07;98761.03;3493493;27;2048451;-74
2021/07/01 04:20:00;;;;;;;;;;;;;;;23.83;65.27;98762.66;3493316;27;2057998;-73
2021/07/01 04:22:12;;;;;;;;;;;;;;;23.84;65.66;98755.31;3464059;27;2077761;-76
2021/07/01 04:24:39;;;;;;;;;;;;;;;23.84;65.96;98756.09;3508564;27;19964;-74
2021/07/01 04:26:41;;;;;;;;;;;;;;;23.83;65.94;98765.41;3514680;27;19963;-74
2021/07/01 04:28:43;;;;;;;;;;;;;;;23.84;65.90;98756.09;3479556;27;2060852;-72
2021/07/01 04:30:38;;;;;;;;;;;;;;;23.86;65.83;98759.34;3491267;27;2052228;-72
2021/07/01 04:33:02;;;;;;;;;;;;;;;23.87;65.93;98757.41;3486545;27;2051658;-74
2021/07/01 04:34:55;;;;;;;;;;;;;;;23.88;65.98;98759.84;3491339;27;2054876;-74
2021/07/01 04:36:51;;;;;;;;;;;;;;;23.90;65.81;98764.97;3481006;27;2065773;-74
2021/07/01 04:38:45;;;;;;;;;;;;;;;23.90;65.77;98765.75;3487994;27;2185034;-74
2021/07/01 04:40:44;;;;;;;;;;;;;;;23.91;65.78;98767.41;3437589;27;2059866;-73
2021/07/01 04:42:37;;;;;;;;;;;;;;;23.94;65.76;98772.22;3476326;27;2087973;-77
2021/07/01 04:44:31;;;;;;;;;;;;;;;23.95;65.87;98771.09;3466445;27;2437654;-77
2021/07/01 04:46:27;;;;;;;;;;;;;;;23.98;65.99;98775.13;3509262;27;20458;-76
2021/07/01 04:48:22;;;;;;;;;;;;;;;23.99;66.00;98768.59;3480804;28;19971;-73
2021/07/01 04:50:14;;;;;;;;;;;;;;;24.03;66.04;98769.56;3493581;27;2047056;-74
2021/07/01 04:52:06;;;;;;;;;;;;;;;24.07;66.32;98767.06;3493352;27;2063589;-72
2021/07/01 04:54:25;;;;;;;;;;;;;;;24.12;66.34;98766.94;3489947;27;2060173;-74
2021/07/01 04:56:43;;;;;;;;;;;;;;;24.13;66.14;98765.81;3493084;27;2069306;-74
2021/07/01 04:58:38;;;;;;;;;;;;;;;24.13;66.18;98763.09;3493335;27;2070984;-73
2021/07/01 05:00:51;;;;;;;;;;;;;;;24.14;66.20;98770.16;3476597;27;2392181;-73
2021/07/01 05:03:23;;;;;;;;;;;;;;;24.13;66.28;98757.66;3475994;27;2087057;-74
2021/07/01 05:05:16;;;;;;;;;;;;;;;24.13;66.07;98758.44;3456362;27;2076780;-72
2021/07/01 05:07:13;;;;;;;;;;;;;;;24.12;66.12;98753.34;3509172;27;19996;-73
2021/07/01 05:09:10;;;;;;;;;;;;;;;24.12;66.00;98753.34;3490818;27;2134940;-74
2021/07/01 05:11:38;;;;;;;;;;;;;;;24.12;66.01;98761.50;3508910;27;19963;-73
2021/07/01 05:13:33;;;;;;;;;;;;;;;24.14;65.76;98762.00;3508715;27;20000;-74
2021/07/01 05:15:25;;;;;;;;;;;;;;;24.14;65.83;98765.53;3487682;27;2076789;-73
2021/07/01 05:17:25;;;;;;;;;;;;;;;24.17;65.74;98758.66;3478060;27;2130472;-73
2021/07/01 05:19:18;;;;;;;;;;;;;;;24.22;65.70;98761.28;3489133;27;2175305;-73
2021/07/01 05:21:20;;;;;;;;;;;;;;;24.29;65.63;98756.22;3481052;27;2055627;-73
2021/07/01 05:23:47;;;;;;;;;;;;;;;24.40;65.37;98755.97;3453079;27;2055571;-73
2021/07/01 05:26:15;;;;;;;;;;;;;;;24.49;64.75;98752.19;3504567;28;19948;-75
2021/07/01 05:28:25;;;;;;;;;;;;;;;24.58;64.82;98755.81;3465777;27;2067485;-75
2021/07/01 05:30:38;;;;;;;;;;;;;;;24.66;64.64;98750.72;3481787;27;2053287;-73
2021/07/01 05:32:59;;;;;;;;;;;;;;;24.76;64.24;98754.00;3476079;27;2065105;-73
2021/07/01 05:35:29;;;;;;;;;;;;;;;24.86;64.24;98757.56;3490753;27;2106178;-74
2021/07/01 05:37:24;;;;;;;;;;;;;;;24.89;64.19;98756.97;3477070;27;2081813;-73
2021/07/01 05:39:26;;;;;;;;;;;;;;;24.89;63.90;98762.41;3499643;27;2137586;-73
2021/07/01 05:41:19;;;;;;;;;;;;;;;24.88;63.95;98760.78;3497955;27;2049425;-71
2021/07/01 05:43:11;;;;;;;;;;;;;;;24.84;64.22;98760.63;3487334;27;2081071;-72
2021/07/01 05:45:07;;;;;;;;;;;;;;;24.81;63.98;98762.06;3495459;27;2083139;-73
2021/07/01 05:47:01;;;;;;;;;;;;;;;24.79;64.15;98753.38;3509523;27;20702;-72
2021/07/01 05:48:54;;;;;;;;;;;;;;;24.79;64.25;98753.38;3466762;27;2454341;-71
2021/07/01 05:51:02;;;;;;;;;;;;;;;24.82;64.32;98768.31;3508326;27;19959;-72
2021/07/01 05:53:06;;;;;;;;;;;;;;;24.91;63.94;98754.72;3484167;27;2151787;-72
2021/07/01 05:54:59;;;;;;;;;;;;;;;25.10;63.67;98755.31;3482701;27;2057290;-72
2021/07/01 05:56:54;;;;;;;;;;;;;;;25.32;63.32;98750.94;3497379;27;20403;-72
2021/07/01 05:58:50;;;;;;;;;;;;;;;25.48;63.15;98751.31;3493616;28;20038;-72
2021/07/01 06:00:42;;;;;;;;;;;;;;;25.58;63.28;98753.75;3470705;27;2054890;-73
2021/07/01 06:02:36;;;;;;;;;;;;;;;25.67;62.98;98754.59;3520136;27;19967;-73
2021/07/01 06:04:29;;;;;;;;;;;;;;;25.72;63.17;98748.19;3474921;27;2310519;-72
2021/07/01 06:06:45;;;;;;;;;;;;;;;25.74;63.07;98749.47;3440679;27;3226007;-70
2021/07/01 06:09:00;;;;;;;;;;;;;;;25.73;62.80;98757.97;3480353;27;2068253;-71
2021/07/01 06:10:54;;;;;;;;;;;;;;;25.67;62.97;98758.09;3471048;27;2090359;-71
2021/07/01 06:12:50;;;;;;;;;;;;;;;25.61;63.13;98753.94;3401473;27;3255692;-74
2021/07/01 06:14:42;;;;;;;;;;;;;;;25.54;62.80;98761.75;3400379;27;3404744;-70
2021/07/01 06:16:37;;;;;;;;;;;;;;;25.45;63.07;98755.47;3505287;27;19964;-69
2021/07/01 06:18:32;;;;;;;;;;;;;;;25.43;63.21;98763.19;3518470;27;21345;-75
2021/07/01 06:20:25;;;;;;;;;;;;;;;25.35;63.23;98762.03;3452404;27;2609684;-74
2021/07/01 06:22:22;;;;;;;;;;;;;;;25.30;62.92;98761.34;3481133;28;19979;-75
2021/07/01 06:24:45;;;;;;;;;;;;;;;25.23;63.69;98761.81;3473894;27;2571523;-77
2021/07/01 06:26:37;;;;;;;;;;;;;;;25.20;63.79;98768.69;3491575;27;2100688;-77
2021/07/01 06:28:34;;;;;;;;;;;;;;;25.18;63.83;98773.66;3491214;27;2111178;-73
2021/07/01 06:30:28;;;;;;;;;;;;;;;25.21;64.74;98778.47;3490894;27;2130654;-73
2021/07/01 06:32:26;;;;;;;;;;;;;;;25.24;64.28;98768.88;3493442;28;20011;-72
2021/07/01 06:34:18;;;;;;;;;;;;;;;25.26;64.68;98765.84;3437473;27;2855045;-75
2021/07/01 06:36:12;;;;;;;;;;;;;;;25.27;64.51;98761.97;3457124;27;2396596;-74
2021/07/01 06:38:24;;;;;;;;;;;;;;;25.28;64.26;98764.41;3477445;27;2252824;-76
2021/07/01 06:40:38;;;;;;;;;;;;;;;25.36;64.28;98762.84;3400962;27;4295384;-74
2021/07/01 06:43:03;;;;;;;;;;;;;;;25.55;63.72;98763.38;3505834;27;19971;-74
2021/07/01 06:45:16;;;;;;;;;;;;;;;25.76;63.27;98758.13;3411003;27;4130220;-73
2021/07/01 06:47:34;;;;;;;;;;;;;;;25.97;62.39;98768.47;3507179;27;19955;-75
2021/07/01 06:50:16;;;;;;;;;;;;;;;26.05;61.94;98771.22;3476280;27;2075538;-75
2021/07/01 06:52:46;;;;;;;;;;;;;;;26.17;61.64;98781.50;3520727;27;19959;-76
2021/07/01 06:55:08;;;;;;;;;;;;;;;26.26;61.84;98776.84;3540432;27;19935;-77
2021/07/01 06:57:06;;;;;;;;;;;;;;;26.35;61.11;98771.38;3484888;27;2051202;-74
2021/07/01 06:58:58;;;;;;;;;;;;;;;26.33;61.36;98770.91;3443335;27;2903039;-74
2021/07/01 07:00:50;;;;;;;;;;;;;;;26.23;61.18;98780.25;3492726;27;2069017;-75
2021/07/01 07:02:42;;;;;;;;;;;;;;;26.16;61.29;98771.72;3491044;27;2079128;-73
2021/07/01 07:04:33;;;;;;;;;;;;;;;26.08;61.70;98772.50;3473861;27;2102666;-74
2021/07/01 07:06:26;;;;;;;;;;;;;;;26.03;61.66;98775.41;3492735;27;2071897;-74
2021/07/01 07:08:21;;;;;;;;;;;;;;;25.98;61.98;98781.81;3507999;27;19971;-75
2021/07/01 07:10:15;;;;;;;;;;;;;;;25.96;61.65;98767.66;3480408;27;2050060;-74
2021/07/01 07:12:07;;;;;;;;;;;;;;;25.93;61.58;98773.78;3486234;27;2231863;-74
2021/07/01 07:13:59;;;;;;;;;;;;;;;25.92;61.56;98777.63;3453138;27;2959447;-73
2021/07/01 07:15:52;;;;;;;;;;;;;;;25.92;61.52;98772.19;3493272;27;2068572;-74
2021/07/01 07:17:47;;;;;;;;;;;;;;;25.91;61.42;98778.75;3494276;27;2047811;-74
2021/07/01 07:19:39;;;;;;;;;;;;;;;25.87;61.70;98780.50;3456896;27;2042303;-73
2021/07/01 07:22:00;;;;;;;;;;;;;;;25.80;61.78;98774.69;3488584;27;2120018;-73
2021/07/01 07:23:54;;;;;;;;;;;;;;;25.75;61.72;98788.47;3483601;27;2084428;-73
2021/07/01 07:25:47;;;;;;;;;;;;;;;25.68;61.55;98794.38;3391097;27;4907455;-74
2021/07/01 07:27:39;;;;;;;;;;;;;;;25.64;61.68;98804.34;3434375;27;3441201;-73
2021/07/01 07:29:36;;;;;;;;;;;;;;;25.59;61.94;98808.00;3494198;28;20082;-73
2021/07/01 07:31:31;;;;;;;;;;;;;;;25.55;61.74;98808.97;3490429;27;2176335;-74
2021/07/01 07:33:27;;;;;;;;;;;;;;;25.47;62.12;98829.63;3532561;27;19934;-74
2021/07/01 07:35:21;;;;;;;;;;;;;;;25.37;62.06;98822.50;3478167;27;2056542;-73
2021/07/01 07:37:14;;;;;;;;;;;;;;;25.26;62.50;98826.66;3490933;27;2112735;-73
2021/07/01 07:39:06;;;;;;;;;;;;;;;25.12;62.74;98823.97;3493052;27;2051907;-73
2021/07/01 07:40:59;;;;;;;;;;;;;;;24.96;63.26;98822.72;3483362;27;2078517;-73
2021/07/01 07:42:51;;;;;;;;;;;;;;;24.87;63.34;98821.88;3487839;27;2089352;-73
2021/07/01 07:44:43;;;;;;;;;;;;;;;24.79;63.33;98824.25;3474854;27;2057649;-73
2021/07/01 07:46:34;;;;;;;;;;;;;;;24.74;63.95;98824.34;3473716;27;2472773;-72
2021/07/01 07:48:26;;;;;;;;;;;;;;;24.69;64.08;98829.94;3470175;27;2076082;-74
2021/07/01 07:50:19;;;;;;;;;;;;;;;24.64;64.34;98824.59;3491780;27;2087789;-73
2021/07/01 07:52:12;;;;;;;;;;;;;;;24.62;64.61;98829.56;3493074;27;2059965;-74
2021/07/01 07:54:06;;;;;;;;;;;;;;;24.64;64.78;98834.72;3483780;27;2079903;-73
2021/07/01 07:56:01;;;;;;;;;;;;;;;24.69;64.72;98840.03;3493008;27;2061975;-74
2021/07/01 07:57:54;;;;;;;;;;;;;;;24.78;64.44;98833.53;3492862;27;2058962;-74
2021/07/01 07:59:49;;;;;;;;;;;;;;;24.90;64.40;98826.72;3493836;28;19976;-74
2021/07/01 08:01:42;;;;;;;;;;;;;;;25.05;63.87;98831.78;3488643;27;2054680;-73
2021/07/01 08:03:40;;;;;;;;;;;;;;;25.24;63.60;98834.31;3536988;27;19951;-74
2021/07/01 08:05:32;;;;;;;;;;;;;;;25.36;63.34;98831.81;3493412;27;2048146;-73
2021/07/01 08:07:24;;;;;;;;;;;;;;;25.45;63.29;98838.16;3492933;27;2063865;-73
2021/07/01 08:09:26;;;;;;;;;;;;;;;25.50;63.12;98837.19;3522806;27;20383;-72
2021/07/01 08:11:19;;;;;;;;;;;;;;;25.52;63.37;98840.41;3492920;27;2053592;-74
2021/07/01 08:13:14;;;;;;;;;;;;;;;25.44;63.32;98833.78;3508561;27;19952;-73
2021/07/01 08:15:18;;;;;;;;;;;;;;;25.48;63.70;98844.91;3492380;27;2064312;-73
2021/07/01 08:17:14;;;;;;;;;;;;;;;25.44;63.28;98841.97;3491756;27;2101041;-75
2021/07/01 08:19:10;;;;;;;;;;;;;;;25.46;63.47;98841.66;3481702;27;2140282;-73
2021/07/01 08:21:04;;;;;;;;;;;;;;;25.49;63.47;98843.78;3491965;27;2070625;-74
2021/07/01 08:22:56;;;;;;;;;;;;;;;25.54;63.55;98848.28;3492337;27;2071479;-73
2021/07/01 08:24:50;;;;;;;;;;;;;;;25.60;63.35;98839.63;3478357;27;2062540;-74
2021/07/01 08:26:43;;;;;;;;;;;;;;;25.69;62.92;98842.41;3491362;27;2099542;-74
2021/07/01 08:28:36;;;;;;;;;;;;;;;25.76;62.66;98842.75;3492891;27;2065070;-72
2021/07/01 08:30:28;;;;;;;;;;;;;;;25.83;62.89;98845.81;3491750;27;2064197;-74
2021/07/01 08:32:20;;;;;;;;;;;;;;;26.00;62.18;98841.56;3491288;27;2109299;-73
2021/07/01 08:34:12;;;;;;;;;;;;;;;26.23;62.05;98844.97;3469285;27;2077810;-73
2021/07/01 08:36:14;;;;;;;;;;;;;;;26.46;61.42;98843.75;3494813;28;20738;-74
2021/07/01 08:38:08;;;;;;;;;;;;;;;26.63;61.09;98844.88;3493154;27;2056301;-75
2021/07/01 08:40:01;;;;;;;;;;;;;;;26.83;60.58;98854.38;3493291;27;2048992;-73
2021/07/01 08:41:55;;;;;;;;;;;;;;;27.02;59.83;98846.63;3481939;27;2073200;-73
2021/07/01 08:43:54;;;;;;;;;;;;;;;27.19;59.94;98845.81;3486369;27;2087106;-73
2021/07/01 08:46:16;;;;;;;;;;;;;;;27.31;59.24;98851.44;3492321;27;2066910;-74
2021/07/01 08:48:22;;;;;;;;;;;;;;;27.45;58.73;98855.91;3492034;27;2071561;-73
2021/07/01 08:50:18;;;;;;;;;;;;;;;27.53;58.38;98864.06;3489637;27;2121558;-73
2021/07/01 08:52:10;;;;;;;;;;;;;;;27.54;58.52;98868.41;3492119;27;2073992;-73
2021/07/01 08:54:13;;;;;;;;;;;;;;;27.52;58.32;98872.59;3522402;27;19951;-73
2021/07/01 08:56:05;;;;;;;;;;;;;;;27.44;58.20;98871.50;3492797;27;2055233;-72
2021/07/01 08:57:57;;;;;;;;;;;;;;;27.36;58.51;98873.16;3487273;27;2059804;-72
2021/07/01 08:59:54;;;;;;;;;;;;;;;27.29;58.23;98878.31;3490471;27;2108933;-73
2021/07/01 09:01:48;;;;;;;;;;;;;;;27.24;58.69;98881.22;3474745;27;2139783;-73
2021/07/01 09:03:40;;;;;;;;;;;;;;;27.19;58.71;98878.66;3489618;27;2050924;-73
2021/07/01 09:05:34;;;;;;;;;;;;;;;27.22;58.35;98885.41;3492961;27;2055011;-72
2021/07/01 09:07:27;;;;;;;;;;;;;;;27.36;57.91;98886.00;3492103;27;2079626;-73
2021/07/01 09:09:19;;;;;;;;;;;;;;;27.48;57.51;98890.81;3491735;27;2090008;-73
2021/07/01 09:11:16;;;;;;;;;;;;;;;27.57;56.79;98884.19;3522310;27;19955;-72
2021/07/01 09:13:11;;;;;;;;;;;;;;;27.79;56.72;98888.59;3522105;27;19959;-73
2021/07/01 09:15:08;;;;;;;;;;;;;;;27.99;56.04;98895.31;3508338;27;19966;-73
2021/07/01 09:17:30;;;;;;;;;;;;;;;28.18;55.52;98886.66;3492402;27;2059239;-72
2021/07/01 09:19:24;;;;;;;;;;;;;;;28.26;54.96;98890.50;3460661;27;2066504;-73
2021/07/01 09:21:16;;;;;;;;;;;;;;;28.37;55.33;98888.16;3475226;27;2107283;-73
2021/07/01 09:23:10;;;;;;;;;;;;;;;28.49;54.83;98891.03;3488782;27;2072816;-72
2021/07/01 09:25:02;;;;;;;;;;;;;;;28.64;54.85;98887.69;3478442;27;2064739;-73
2021/07/01 09:26:59;;;;;;;;;;;;;;;28.76;53.82;98897.09;3482624;27;2054042;-73
2021/07/01 09:28:55;;;;;;;;;;;;;;;28.89;53.79;98893.31;3508151;27;20390;-73
2021/07/01 09:30:47;;;;;;;;;;;;;;;28.99;53.46;98887.41;3492347;27;2061002;-72
2021/07/01 09:32:41;;;;;;;;;;;;;;;29.01;53.14;98895.28;3492718;27;2070849;-72
2021/07/01 09:34:34;;;;;;;;;;;;;;;28.97;53.10;98900.66;3479793;27;2067028;-73
2021/07/01 09:36:25;;;;;;;;;;;;;;;28.89;53.54;98902.34;3492118;27;2076641;-73
2021/07/01 09:38:17;;;;;;;;;;;;;;;28.81;53.22;98896.91;3490896;27;2105784;-72
2021/07/01 09:40:10;;;;;;;;;;;;;;;28.72;53.27;98880.53;3439433;27;3340384;-73
2021/07/01 09:42:04;;;;;;;;;;;;;;;28.78;53.49;98883.88;3491976;27;2080864;-74
2021/07/01 09:43:56;;;;;;;;;;;;;;;28.94;53.32;98895.84;3488139;27;2046586;-75
2021/07/01 09:45:48;;;;;;;;;;;;;;;29.16;52.85;98888.41;3492126;27;2064931;-73
2021/07/01 09:47:43;;;;;;;;;;;;;;;29.24;51.54;98887.50;3492359;27;2066203;-74
2021/07/01 09:49:40;;;;;;;;;;;;;;;29.37;51.71;98891.09;3491236;27;2094217;-73
2021/07/01 09:51:32;;;;;;;;;;;;;;;29.57;51.73;98891.03;3476636;27;2097025;-73
2021/07/01 09:53:28;;;;;;;;;;;;;;;29.86;50.81;98881.00;3491726;27;2061362;-72
2021/07/01 09:55:19;;;;;;;;;;;;;;;30.10;50.69;98882.97;3492329;27;2061870;-73
2021/07/01 09:57:17;;;;;;;;;;;;;;;30.14;50.18;98888.56;3494462;28;19952;-73
2021/07/01 09:59:29;;;;;;;;;;;;;;;30.08;49.94;98893.50;3492808;27;2054833;-73
2021/07/01 10:01:26;;;;;;;;;;;;;;;30.00;50.36;98899.91;3478645;27;2042036;-73
2021/07/01 10:03:21;;;;;;;;;;;;;;;30.01;50.33;98898.75;3508311;27;19967;-73
2021/07/01 10:05:28;;;;;;;;;;;;;;;30.10;50.07;98891.22;3468607;27;2072390;-73